createdAt,value
2018-02-18T00:00:23.230Z,1020.43
2018-02-18T00:00:49.339Z,1020.47
2018-02-18T00:01:15.441Z,1020.46
2018-02-18T00:01:41.534Z,1020.46
2018-02-18T00:02:07.635Z,1020.44
2018-02-18T00:02:33.739Z,1020.42
2018-02-18T00:02:59.843Z,1020.41
2018-02-18T00:03:25.935Z,1020.44
2018-02-18T00:03:52.075Z,1020.44
2018-02-18T00:04:18.168Z,1020.43
2018-02-18T00:04:44.267Z,1020.47
2018-02-18T00:05:10.373Z,1020.49
2018-02-18T00:05:36.468Z,1020.5
2018-02-18T00:06:02.568Z,1020.51
2018-02-18T00:06:28.671Z,1020.49
2018-02-18T00:06:54.766Z,1020.56
2018-02-18T00:07:20.983Z,1020.53
2018-02-18T00:07:46.997Z,1020.52
2018-02-18T00:08:13.097Z,1020.53
2018-02-18T00:08:39.198Z,1020.55
2018-02-18T00:09:05.304Z,1020.55
2018-02-18T00:09:31.422Z,1020.54
2018-02-18T00:09:57.517Z,1020.55
2018-02-18T00:10:23.680Z,1020.52
2018-02-18T00:10:49.867Z,1020.55
2018-02-18T00:11:16.021Z,1020.5
2018-02-18T00:11:42.166Z,1020.53
2018-02-18T00:12:08.262Z,1020.53
2018-02-18T00:12:34.367Z,1020.53
2018-02-18T00:13:00.536Z,1020.56
2018-02-18T00:13:26.628Z,1020.61
2018-02-18T00:13:52.819Z,1020.58
2018-02-18T00:14:18.908Z,1020.59
2018-02-18T00:14:45.011Z,1020.57
2018-02-18T00:15:11.112Z,1020.58
2018-02-18T00:15:37.238Z,1020.6
2018-02-18T00:16:03.391Z,1020.61
2018-02-18T00:16:29.541Z,1020.6
2018-02-18T00:16:55.654Z,1020.57
2018-02-18T00:17:21.764Z,1020.56
2018-02-18T00:17:47.905Z,1020.59
2018-02-18T00:18:14.034Z,1020.61
2018-02-18T00:18:40.166Z,1020.55
2018-02-18T00:19:06.260Z,1020.58
2018-02-18T00:19:32.368Z,1020.58
2018-02-18T00:19:58.483Z,1020.58
2018-02-18T00:20:24.578Z,1020.61
2018-02-18T00:20:50.696Z,1020.56
2018-02-18T00:21:16.820Z,1020.57
2018-02-18T00:21:42.939Z,1020.55
2018-02-18T00:22:09.058Z,1020.55
2018-02-18T00:22:35.243Z,1020.52
2018-02-18T00:23:01.296Z,1020.58
2018-02-18T00:23:27.412Z,1020.56
2018-02-18T00:23:53.510Z,1020.55
2018-02-18T00:24:19.632Z,1020.51
2018-02-18T00:24:45.740Z,1020.52
2018-02-18T00:25:11.863Z,1020.49
2018-02-18T00:25:37.967Z,1020.49
2018-02-18T00:26:04.072Z,1020.53
2018-02-18T00:26:30.204Z,1020.56
2018-02-18T00:26:56.384Z,1020.51
2018-02-18T00:27:22.512Z,1020.52
2018-02-18T00:27:48.608Z,1020.49
2018-02-18T00:28:14.756Z,1020.51
2018-02-18T00:28:41.043Z,1020.53
2018-02-18T00:29:07.111Z,1020.52
2018-02-18T00:29:33.230Z,1020.52
2018-02-18T00:29:59.333Z,1020.5
2018-02-18T00:30:25.448Z,1020.53
2018-02-18T00:30:51.643Z,1020.56
2018-02-18T00:31:17.760Z,1020.54
2018-02-18T00:31:43.861Z,1020.53
2018-02-18T00:32:10.180Z,1020.49
2018-02-18T00:32:36.909Z,1020.52
2018-02-18T00:33:03.061Z,1020.51
2018-02-18T00:33:29.259Z,1020.51
2018-02-18T00:33:55.363Z,1020.47
2018-02-18T00:34:21.549Z,1020.5
2018-02-18T00:34:47.656Z,1020.53
2018-02-18T00:35:13.813Z,1020.51
2018-02-18T00:35:40.288Z,1020.49
2018-02-18T00:36:06.353Z,1020.48
2018-02-18T00:36:32.521Z,1020.51
2018-02-18T00:36:58.635Z,1020.47
2018-02-18T00:37:24.807Z,1020.48
2018-02-18T00:37:51.112Z,1020.44
2018-02-18T00:38:17.650Z,1020.47
2018-02-18T00:38:43.757Z,1020.45
2018-02-18T00:39:09.889Z,1020.44
2018-02-18T00:39:36.078Z,1020.4
2018-02-18T00:40:02.144Z,1020.48
2018-02-18T00:40:28.237Z,1020.49
2018-02-18T00:40:55.293Z,1020.52
2018-02-18T00:41:21.395Z,1020.48
2018-02-18T00:41:47.518Z,1020.46
2018-02-18T00:42:13.633Z,1020.48
2018-02-18T00:42:39.731Z,1020.48
2018-02-18T00:43:05.838Z,1020.44
2018-02-18T00:43:32.294Z,1020.47
2018-02-18T00:43:58.410Z,1020.5
2018-02-18T00:44:24.590Z,1020.49
2018-02-18T00:44:50.666Z,1020.49
2018-02-18T00:45:16.805Z,1020.51
2018-02-18T00:45:43.293Z,1020.52
2018-02-18T00:46:09.388Z,1020.5
2018-02-18T00:46:35.606Z,1020.46
2018-02-18T00:47:01.736Z,1020.5
2018-02-18T00:47:27.867Z,1020.52
2018-02-18T00:47:53.999Z,1020.51
2018-02-18T00:48:20.106Z,1020.46
2018-02-18T00:48:46.695Z,1020.49
2018-02-18T00:49:12.840Z,1020.47
2018-02-18T00:49:38.929Z,1020.52
2018-02-18T00:50:05.045Z,1020.5
2018-02-18T00:50:31.178Z,1020.52
2018-02-18T00:50:57.337Z,1020.55
2018-02-18T00:51:23.836Z,1020.51
2018-02-18T00:51:49.948Z,1020.54
2018-02-18T00:52:16.063Z,1020.53
2018-02-18T00:52:42.195Z,1020.56
2018-02-18T00:53:08.296Z,1020.59
2018-02-18T00:53:34.630Z,1020.57
2018-02-18T00:54:00.765Z,1020.55
2018-02-18T00:54:26.855Z,1020.59
2018-02-18T00:54:53.005Z,1020.56
2018-02-18T00:55:19.093Z,1020.58
2018-02-18T00:55:45.197Z,1020.56
2018-02-18T00:56:11.486Z,1020.56
2018-02-18T00:56:37.645Z,1020.57
2018-02-18T00:57:03.723Z,1020.58
2018-02-18T00:57:29.829Z,1020.5
2018-02-18T00:57:55.930Z,1020.6
2018-02-18T00:58:22.039Z,1020.54
2018-02-18T00:58:48.127Z,1020.52
2018-02-18T00:59:14.532Z,1020.55
2018-02-18T00:59:40.619Z,1020.51
2018-02-18T01:00:06.724Z,1020.58
2018-02-18T01:00:32.821Z,1020.56
2018-02-18T01:00:58.960Z,1020.55
2018-02-18T01:01:25.063Z,1020.61
2018-02-18T01:01:51.499Z,1020.59
2018-02-18T01:02:17.649Z,1020.58
2018-02-18T01:02:43.793Z,1020.62
2018-02-18T01:03:09.861Z,1020.63
2018-02-18T01:03:35.957Z,1020.6
2018-02-18T01:04:02.058Z,1020.61
2018-02-18T01:04:28.186Z,1020.59
2018-02-18T01:04:54.500Z,1020.59
2018-02-18T01:05:20.602Z,1020.63
2018-02-18T01:05:46.699Z,1020.59
2018-02-18T01:06:12.808Z,1020.58
2018-02-18T01:06:38.924Z,1020.57
2018-02-18T01:07:05.022Z,1020.61
2018-02-18T01:07:31.380Z,1020.58
2018-02-18T01:07:57.486Z,1020.58
2018-02-18T01:08:23.595Z,1020.58
2018-02-18T01:08:49.695Z,1020.57
2018-02-18T01:09:15.796Z,1020.55
2018-02-18T01:09:41.908Z,1020.55
2018-02-18T01:10:08.266Z,1020.55
2018-02-18T01:10:34.390Z,1020.56
2018-02-18T01:11:00.487Z,1020.57
2018-02-18T01:11:26.595Z,1020.57
2018-02-18T01:11:52.704Z,1020.56
2018-02-18T01:12:18.827Z,1020.58
2018-02-18T01:12:45.039Z,1020.61
2018-02-18T01:13:11.203Z,1020.56
2018-02-18T01:13:37.327Z,1020.59
2018-02-18T01:14:03.464Z,1020.56
2018-02-18T01:14:29.565Z,1020.61
2018-02-18T01:14:55.678Z,1020.57
2018-02-18T01:15:22.117Z,1020.59
2018-02-18T01:15:48.211Z,1020.61
2018-02-18T01:16:14.319Z,1020.58
2018-02-18T01:16:40.409Z,1020.59
2018-02-18T01:17:06.545Z,1020.61
2018-02-18T01:17:32.632Z,1020.6
2018-02-18T01:17:58.985Z,1020.61
2018-02-18T01:18:25.076Z,1020.59
2018-02-18T01:18:51.179Z,1020.58
2018-02-18T01:19:17.273Z,1020.59
2018-02-18T01:19:43.372Z,1020.56
2018-02-18T01:20:09.491Z,1020.57
2018-02-18T01:20:35.765Z,1020.57
2018-02-18T01:21:02.021Z,1020.59
2018-02-18T01:21:28.109Z,1020.55
2018-02-18T01:21:54.226Z,1020.6
2018-02-18T01:22:20.331Z,1020.6
2018-02-18T01:22:46.439Z,1020.6
2018-02-18T01:23:12.562Z,1020.6
2018-02-18T01:23:38.866Z,1020.59
2018-02-18T01:24:04.965Z,1020.64
2018-02-18T01:24:31.068Z,1020.6
2018-02-18T01:24:57.164Z,1020.63
2018-02-18T01:25:23.266Z,1020.64
2018-02-18T01:25:49.374Z,1020.65
2018-02-18T01:26:15.480Z,1020.66
2018-02-18T01:26:41.579Z,1020.66
2018-02-18T01:27:07.683Z,1020.67
2018-02-18T01:27:33.780Z,1020.66
2018-02-18T01:27:59.885Z,1020.65
2018-02-18T01:28:25.989Z,1020.72
2018-02-18T01:28:52.091Z,1020.65
2018-02-18T01:29:18.194Z,1020.69
2018-02-18T01:29:44.288Z,1020.7
2018-02-18T01:30:10.387Z,1020.68
2018-02-18T01:30:36.487Z,1020.71
2018-02-18T01:31:02.590Z,1020.68
2018-02-18T01:31:28.690Z,1020.73
2018-02-18T01:31:54.785Z,1020.74
2018-02-18T01:32:20.885Z,1020.73
2018-02-18T01:32:46.989Z,1020.72
2018-02-18T01:33:13.086Z,1020.68
2018-02-18T01:33:39.184Z,1020.7
2018-02-18T01:34:05.302Z,1020.72
2018-02-18T01:34:31.400Z,1020.7
2018-02-18T01:34:57.504Z,1020.72
2018-02-18T01:35:23.603Z,1020.72
2018-02-18T01:35:49.700Z,1020.74
2018-02-18T01:36:15.807Z,1020.72
2018-02-18T01:36:41.898Z,1020.72
2018-02-18T01:37:07.997Z,1020.73
2018-02-18T01:37:34.119Z,1020.75
2018-02-18T01:38:00.230Z,1020.71
2018-02-18T01:38:26.318Z,1020.75
2018-02-18T01:38:52.420Z,1020.77
2018-02-18T01:39:18.535Z,1020.7
2018-02-18T01:39:44.635Z,1020.71
2018-02-18T01:40:10.736Z,1020.73
2018-02-18T01:40:36.837Z,1020.72
2018-02-18T01:41:02.939Z,1020.73
2018-02-18T01:41:29.039Z,1020.74
2018-02-18T01:41:55.142Z,1020.73
2018-02-18T01:42:21.275Z,1020.73
2018-02-18T01:42:47.381Z,1020.75
2018-02-18T01:43:13.483Z,1020.78
2018-02-18T01:43:39.579Z,1020.77
2018-02-18T01:44:05.695Z,1020.77
2018-02-18T01:44:31.801Z,1020.8
2018-02-18T01:44:57.896Z,1020.82
2018-02-18T01:45:24.002Z,1020.81
2018-02-18T01:45:50.103Z,1020.81
2018-02-18T01:46:16.199Z,1020.8
2018-02-18T01:46:42.306Z,1020.82
2018-02-18T01:47:08.398Z,1020.82
2018-02-18T01:47:34.503Z,1020.79
2018-02-18T01:48:00.602Z,1020.81
2018-02-18T01:48:26.700Z,1020.82
2018-02-18T01:48:52.805Z,1020.8
2018-02-18T01:49:18.905Z,1020.79
2018-02-18T01:49:45.004Z,1020.77
2018-02-18T01:50:11.106Z,1020.79
2018-02-18T01:50:37.202Z,1020.82
2018-02-18T01:51:03.300Z,1020.8
2018-02-18T01:51:29.402Z,1020.78
2018-02-18T01:51:55.499Z,1020.76
2018-02-18T01:52:21.607Z,1020.76
2018-02-18T01:52:47.721Z,1020.77
2018-02-18T01:53:13.816Z,1020.74
2018-02-18T01:53:39.918Z,1020.74
2018-02-18T01:54:06.021Z,1020.75
2018-02-18T01:54:32.115Z,1020.78
2018-02-18T01:54:58.220Z,1020.73
2018-02-18T01:55:24.321Z,1020.75
2018-02-18T01:55:50.433Z,1020.74
2018-02-18T01:56:16.532Z,1020.72
2018-02-18T01:56:42.635Z,1020.74
2018-02-18T01:57:08.734Z,1020.74
2018-02-18T01:57:34.835Z,1020.75
2018-02-18T01:58:00.944Z,1020.76
2018-02-18T01:58:27.041Z,1020.72
2018-02-18T01:58:53.143Z,1020.73
2018-02-18T01:59:19.238Z,1020.74
2018-02-18T01:59:45.345Z,1020.77
2018-02-18T02:00:11.460Z,1020.79
2018-02-18T02:00:37.579Z,1020.76
2018-02-18T02:01:03.674Z,1020.79
2018-02-18T02:01:29.784Z,1020.78
2018-02-18T02:01:55.880Z,1020.76
2018-02-18T02:02:21.981Z,1020.76
2018-02-18T02:02:48.084Z,1020.78
2018-02-18T02:03:14.181Z,1020.79
2018-02-18T02:03:40.276Z,1020.78
2018-02-18T02:04:06.372Z,1020.77
2018-02-18T02:04:32.476Z,1020.77
2018-02-18T02:04:58.579Z,1020.82
2018-02-18T02:05:24.676Z,1020.77
2018-02-18T02:05:50.776Z,1020.8
2018-02-18T02:06:16.879Z,1020.82
2018-02-18T02:06:42.981Z,1020.8
2018-02-18T02:07:09.076Z,1020.75
2018-02-18T02:07:35.175Z,1020.79
2018-02-18T02:08:01.284Z,1020.78
2018-02-18T02:08:27.377Z,1020.79
2018-02-18T02:08:53.479Z,1020.78
2018-02-18T02:09:19.586Z,1020.78
2018-02-18T02:09:45.682Z,1020.76
2018-02-18T02:10:11.785Z,1020.8
2018-02-18T02:10:37.882Z,1020.79
2018-02-18T02:11:03.978Z,1020.75
2018-02-18T02:11:30.081Z,1020.74
2018-02-18T02:11:56.186Z,1020.74
2018-02-18T02:12:22.284Z,1020.7
2018-02-18T02:12:48.386Z,1020.72
2018-02-18T02:13:14.486Z,1020.7
2018-02-18T02:13:40.595Z,1020.73
2018-02-18T02:14:06.717Z,1020.73
2018-02-18T02:14:32.817Z,1020.71
2018-02-18T02:14:58.912Z,1020.71
2018-02-18T02:15:25.015Z,1020.7
2018-02-18T02:15:51.114Z,1020.74
2018-02-18T02:16:17.213Z,1020.73
2018-02-18T02:16:43.317Z,1020.74
2018-02-18T02:17:09.418Z,1020.78
2018-02-18T02:17:35.510Z,1020.76
2018-02-18T02:18:01.618Z,1020.76
2018-02-18T02:18:27.716Z,1020.77
2018-02-18T02:18:53.819Z,1020.78
2018-02-18T02:19:19.916Z,1020.8
2018-02-18T02:19:46.014Z,1020.77
2018-02-18T02:20:12.150Z,1020.75
2018-02-18T02:20:38.248Z,1020.79
2018-02-18T02:21:04.357Z,1020.82
2018-02-18T02:21:30.475Z,1020.76
2018-02-18T02:21:56.576Z,1020.8
2018-02-18T02:22:22.680Z,1020.8
2018-02-18T02:22:48.782Z,1020.82
2018-02-18T02:23:14.878Z,1020.8
2018-02-18T02:23:40.983Z,1020.8
2018-02-18T02:24:07.082Z,1020.77
2018-02-18T02:24:33.179Z,1020.8
2018-02-18T02:24:59.289Z,1020.79
2018-02-18T02:25:25.386Z,1020.81
2018-02-18T02:25:51.491Z,1020.77
2018-02-18T02:26:17.586Z,1020.8
2018-02-18T02:26:43.687Z,1020.83
2018-02-18T02:27:09.788Z,1020.79
2018-02-18T02:27:35.890Z,1020.78
2018-02-18T02:28:01.985Z,1020.78
2018-02-18T02:28:28.091Z,1020.8
2018-02-18T02:28:54.184Z,1020.77
2018-02-18T02:29:20.283Z,1020.8
2018-02-18T02:29:46.386Z,1020.77
2018-02-18T02:30:12.485Z,1020.75
2018-02-18T02:30:38.595Z,1020.81
2018-02-18T02:31:04.701Z,1020.74
2018-02-18T02:31:30.800Z,1020.77
2018-02-18T02:31:56.904Z,1020.76
2018-02-18T02:32:23.000Z,1020.77
2018-02-18T02:32:49.097Z,1020.76
2018-02-18T02:33:15.199Z,1020.69
2018-02-18T02:33:41.301Z,1020.76
2018-02-18T02:34:07.401Z,1020.74
2018-02-18T02:34:33.502Z,1020.71
2018-02-18T02:34:59.599Z,1020.68
2018-02-18T02:35:25.712Z,1020.68
2018-02-18T02:35:51.813Z,1020.68
2018-02-18T02:36:17.937Z,1020.7
2018-02-18T02:36:44.031Z,1020.71
2018-02-18T02:37:10.131Z,1020.68
2018-02-18T02:37:36.234Z,1020.68
2018-02-18T02:38:02.327Z,1020.68
2018-02-18T02:38:28.454Z,1020.72
2018-02-18T02:38:54.545Z,1020.71
2018-02-18T02:39:20.646Z,1020.7
2018-02-18T02:39:46.743Z,1020.7
2018-02-18T02:40:12.845Z,1020.71
2018-02-18T02:40:38.962Z,1020.73
2018-02-18T02:41:05.067Z,1020.69
2018-02-18T02:41:31.175Z,1020.69
2018-02-18T02:41:57.263Z,1020.69
2018-02-18T02:42:23.377Z,1020.73
2018-02-18T02:42:49.481Z,1020.71
2018-02-18T02:43:15.587Z,1020.71
2018-02-18T02:43:41.685Z,1020.7
2018-02-18T02:44:07.782Z,1020.72
2018-02-18T02:44:33.881Z,1020.72
2018-02-18T02:44:59.977Z,1020.71
2018-02-18T02:45:26.096Z,1020.71
2018-02-18T02:45:52.211Z,1020.73
2018-02-18T02:46:18.313Z,1020.73
2018-02-18T02:46:44.427Z,1020.7
2018-02-18T02:47:10.533Z,1020.74
2018-02-18T02:47:36.633Z,1020.73
2018-02-18T02:48:02.758Z,1020.68
2018-02-18T02:48:28.853Z,1020.73
2018-02-18T02:48:54.952Z,1020.74
2018-02-18T02:49:21.052Z,1020.72
2018-02-18T02:49:47.151Z,1020.75
2018-02-18T02:50:13.248Z,1020.73
2018-02-18T02:50:39.370Z,1020.71
2018-02-18T02:51:05.472Z,1020.69
2018-02-18T02:51:31.590Z,1020.72
2018-02-18T02:51:57.684Z,1020.71
2018-02-18T02:52:23.785Z,1020.7
2018-02-18T02:52:49.894Z,1020.7
2018-02-18T02:53:15.997Z,1020.69
2018-02-18T02:53:42.101Z,1020.69
2018-02-18T02:54:08.200Z,1020.7
2018-02-18T02:54:34.297Z,1020.68
2018-02-18T02:55:00.401Z,1020.67
2018-02-18T02:55:26.504Z,1020.65
2018-02-18T02:55:52.599Z,1020.65
2018-02-18T02:56:18.707Z,1020.61
2018-02-18T02:56:44.813Z,1020.62
2018-02-18T02:57:10.919Z,1020.63
2018-02-18T02:57:37.032Z,1020.62
2018-02-18T02:58:03.127Z,1020.57
2018-02-18T02:58:29.231Z,1020.58
2018-02-18T02:58:55.325Z,1020.56
2018-02-18T02:59:21.432Z,1020.57
2018-02-18T02:59:47.547Z,1020.57
2018-02-18T03:00:13.644Z,1020.59
2018-02-18T03:00:39.745Z,1020.54
2018-02-18T03:01:05.841Z,1020.53
2018-02-18T03:01:31.939Z,1020.55
2018-02-18T03:01:58.079Z,1020.54
2018-02-18T03:02:24.161Z,1020.56
2018-02-18T03:02:50.252Z,1020.58
2018-02-18T03:03:16.355Z,1020.56
2018-02-18T03:03:42.457Z,1020.6
2018-02-18T03:04:08.553Z,1020.57
2018-02-18T03:04:34.673Z,1020.56
2018-02-18T03:05:00.775Z,1020.55
2018-02-18T03:05:26.873Z,1020.55
2018-02-18T03:05:52.974Z,1020.62
2018-02-18T03:06:19.071Z,1020.56
2018-02-18T03:06:45.211Z,1020.61
2018-02-18T03:07:11.312Z,1020.58
2018-02-18T03:07:37.407Z,1020.62
2018-02-18T03:08:03.515Z,1020.6
2018-02-18T03:08:29.623Z,1020.6
2018-02-18T03:08:55.720Z,1020.62
2018-02-18T03:09:21.822Z,1020.58
2018-02-18T03:09:47.921Z,1020.57
2018-02-18T03:10:14.019Z,1020.6
2018-02-18T03:10:40.116Z,1020.59
2018-02-18T03:11:06.217Z,1020.56
2018-02-18T03:11:32.317Z,1020.58
2018-02-18T03:11:58.419Z,1020.59
2018-02-18T03:12:24.522Z,1020.57
2018-02-18T03:12:50.619Z,1020.57
2018-02-18T03:13:16.723Z,1020.58
2018-02-18T03:13:42.837Z,1020.59
2018-02-18T03:14:08.936Z,1020.6
2018-02-18T03:14:35.055Z,1020.57
2018-02-18T03:15:01.158Z,1020.59
2018-02-18T03:15:27.254Z,1020.59
2018-02-18T03:15:53.358Z,1020.59
2018-02-18T03:16:19.455Z,1020.55
2018-02-18T03:16:45.564Z,1020.55
2018-02-18T03:17:11.662Z,1020.56
2018-02-18T03:17:37.759Z,1020.58
2018-02-18T03:18:03.880Z,1020.56
2018-02-18T03:18:29.992Z,1020.61
2018-02-18T03:18:56.090Z,1020.57
2018-02-18T03:19:22.196Z,1020.58
2018-02-18T03:19:48.300Z,1020.61
2018-02-18T03:20:14.397Z,1020.57
2018-02-18T03:20:40.501Z,1020.58
2018-02-18T03:21:06.602Z,1020.56
2018-02-18T03:21:32.704Z,1020.57
2018-02-18T03:21:58.803Z,1020.56
2018-02-18T03:22:24.902Z,1020.59
2018-02-18T03:22:51.003Z,1020.57
2018-02-18T03:23:17.124Z,1020.58
2018-02-18T03:23:43.220Z,1020.55
2018-02-18T03:24:09.322Z,1020.59
2018-02-18T03:24:35.423Z,1020.59
2018-02-18T03:25:01.519Z,1020.56
2018-02-18T03:25:27.615Z,1020.57
2018-02-18T03:25:53.712Z,1020.6
2018-02-18T03:26:19.816Z,1020.55
2018-02-18T03:26:45.914Z,1020.57
2018-02-18T03:27:12.070Z,1020.55
2018-02-18T03:27:38.166Z,1020.52
2018-02-18T03:28:04.262Z,1020.56
2018-02-18T03:28:30.367Z,1020.56
2018-02-18T03:28:56.466Z,1020.57
2018-02-18T03:29:22.572Z,1020.53
2018-02-18T03:29:48.667Z,1020.56
2018-02-18T03:30:14.774Z,1020.55
2018-02-18T03:30:40.869Z,1020.52
2018-02-18T03:31:06.974Z,1020.52
2018-02-18T03:31:33.069Z,1020.51
2018-02-18T03:31:59.193Z,1020.56
2018-02-18T03:32:25.304Z,1020.5
2018-02-18T03:32:51.401Z,1020.51
2018-02-18T03:33:17.497Z,1020.5
2018-02-18T03:33:43.596Z,1020.49
2018-02-18T03:34:09.701Z,1020.47
2018-02-18T03:34:35.803Z,1020.53
2018-02-18T03:35:01.907Z,1020.54
2018-02-18T03:35:28.007Z,1020.53
2018-02-18T03:35:54.106Z,1020.51
2018-02-18T03:36:20.204Z,1020.54
2018-02-18T03:36:46.306Z,1020.53
2018-02-18T03:37:12.411Z,1020.5
2018-02-18T03:37:38.523Z,1020.51
2018-02-18T03:38:04.627Z,1020.51
2018-02-18T03:38:30.724Z,1020.47
2018-02-18T03:38:56.832Z,1020.54
2018-02-18T03:39:22.924Z,1020.49
2018-02-18T03:39:49.026Z,1020.5
2018-02-18T03:40:15.122Z,1020.5
2018-02-18T03:40:41.219Z,1020.48
2018-02-18T03:41:07.341Z,1020.51
2018-02-18T03:41:33.436Z,1020.48
2018-02-18T03:41:59.555Z,1020.48
2018-02-18T03:42:25.660Z,1020.48
2018-02-18T03:42:51.754Z,1020.44
2018-02-18T03:43:17.854Z,1020.47
2018-02-18T03:43:43.959Z,1020.49
2018-02-18T03:44:10.059Z,1020.47
2018-02-18T03:44:36.174Z,1020.47
2018-02-18T03:45:02.278Z,1020.48
2018-02-18T03:45:28.376Z,1020.47
2018-02-18T03:45:54.471Z,1020.44
2018-02-18T03:46:20.576Z,1020.48
2018-02-18T03:46:46.675Z,1020.49
2018-02-18T03:47:12.789Z,1020.46
2018-02-18T03:47:38.885Z,1020.46
2018-02-18T03:48:04.993Z,1020.49
2018-02-18T03:48:31.087Z,1020.49
2018-02-18T03:48:57.192Z,1020.46
2018-02-18T03:49:23.300Z,1020.45
2018-02-18T03:49:49.388Z,1020.47
2018-02-18T03:50:15.494Z,1020.45
2018-02-18T03:50:41.590Z,1020.51
2018-02-18T03:51:07.698Z,1020.48
2018-02-18T03:51:33.792Z,1020.47
2018-02-18T03:51:59.891Z,1020.5
2018-02-18T03:52:25.991Z,1020.5
2018-02-18T03:52:52.090Z,1020.54
2018-02-18T03:53:18.189Z,1020.52
2018-02-18T03:53:44.297Z,1020.5
2018-02-18T03:54:10.397Z,1020.5
2018-02-18T03:54:36.497Z,1020.51
2018-02-18T03:55:02.615Z,1020.52
2018-02-18T03:55:28.734Z,1020.55
2018-02-18T03:55:54.836Z,1020.53
2018-02-18T03:56:20.936Z,1020.54
2018-02-18T03:56:47.031Z,1020.52
2018-02-18T03:57:13.130Z,1020.51
2018-02-18T03:57:39.233Z,1020.56
2018-02-18T03:58:05.342Z,1020.55
2018-02-18T03:58:31.431Z,1020.56
2018-02-18T03:58:57.538Z,1020.57
2018-02-18T03:59:23.633Z,1020.55
2018-02-18T03:59:49.729Z,1020.53
2018-02-18T04:00:15.834Z,1020.57
2018-02-18T04:00:41.929Z,1020.53
2018-02-18T04:01:08.032Z,1020.56
2018-02-18T04:01:34.136Z,1020.59
2018-02-18T04:02:00.231Z,1020.58
2018-02-18T04:02:26.336Z,1020.57
2018-02-18T04:02:52.440Z,1020.61
2018-02-18T04:03:18.540Z,1020.56
2018-02-18T04:03:44.636Z,1020.52
2018-02-18T04:04:10.739Z,1020.57
2018-02-18T04:04:36.852Z,1020.55
2018-02-18T04:05:02.958Z,1020.53
2018-02-18T04:05:29.054Z,1020.55
2018-02-18T04:05:55.151Z,1020.55
2018-02-18T04:06:21.255Z,1020.55
2018-02-18T04:06:47.358Z,1020.56
2018-02-18T04:07:13.454Z,1020.53
2018-02-18T04:07:39.553Z,1020.56
2018-02-18T04:08:05.657Z,1020.6
2018-02-18T04:08:31.755Z,1020.55
2018-02-18T04:08:57.857Z,1020.56
2018-02-18T04:09:23.957Z,1020.57
2018-02-18T04:09:50.055Z,1020.57
2018-02-18T04:10:16.174Z,1020.59
2018-02-18T04:10:42.270Z,1020.55
2018-02-18T04:11:08.368Z,1020.56
2018-02-18T04:11:34.469Z,1020.58
2018-02-18T04:12:00.566Z,1020.55
2018-02-18T04:12:26.705Z,1020.56
2018-02-18T04:12:52.811Z,1020.54
2018-02-18T04:13:18.908Z,1020.57
2018-02-18T04:13:45.030Z,1020.54
2018-02-18T04:14:11.124Z,1020.55
2018-02-18T04:14:37.249Z,1020.55
2018-02-18T04:15:03.347Z,1020.53
2018-02-18T04:15:29.449Z,1020.53
2018-02-18T04:15:55.550Z,1020.51
2018-02-18T04:16:21.655Z,1020.47
2018-02-18T04:16:47.751Z,1020.54
2018-02-18T04:17:13.842Z,1020.47
2018-02-18T04:17:39.948Z,1020.48
2018-02-18T04:18:06.050Z,1020.53
2018-02-18T04:18:32.154Z,1020.5
2018-02-18T04:18:58.249Z,1020.53
2018-02-18T04:19:24.356Z,1020.52
2018-02-18T04:19:50.451Z,1020.51
2018-02-18T04:20:16.553Z,1020.55
2018-02-18T04:20:42.668Z,1020.51
2018-02-18T04:21:08.766Z,1020.52
2018-02-18T04:21:34.863Z,1020.53
2018-02-18T04:22:00.969Z,1020.52
2018-02-18T04:22:27.098Z,1020.54
2018-02-18T04:22:53.195Z,1020.55
2018-02-18T04:23:19.295Z,1020.53
2018-02-18T04:23:45.392Z,1020.54
2018-02-18T04:24:11.489Z,1020.51
2018-02-18T04:24:37.613Z,1020.54
2018-02-18T04:25:03.709Z,1020.52
2018-02-18T04:25:29.817Z,1020.49
2018-02-18T04:25:55.914Z,1020.52
2018-02-18T04:26:22.017Z,1020.51
2018-02-18T04:26:48.120Z,1020.51
2018-02-18T04:27:14.217Z,1020.55
2018-02-18T04:27:40.320Z,1020.55
2018-02-18T04:28:06.415Z,1020.54
2018-02-18T04:28:32.515Z,1020.57
2018-02-18T04:28:58.621Z,1020.55
2018-02-18T04:29:24.716Z,1020.57
2018-02-18T04:29:50.842Z,1020.56
2018-02-18T04:30:16.938Z,1020.55
2018-02-18T04:30:43.036Z,1020.55
2018-02-18T04:31:09.125Z,1020.54
2018-02-18T04:31:35.233Z,1020.56
2018-02-18T04:32:01.349Z,1020.54
2018-02-18T04:32:27.468Z,1020.55
2018-02-18T04:32:53.564Z,1020.53
2018-02-18T04:33:19.668Z,1020.56
2018-02-18T04:33:45.765Z,1020.53
2018-02-18T04:34:11.864Z,1020.53
2018-02-18T04:34:37.968Z,1020.52
2018-02-18T04:35:04.079Z,1020.52
2018-02-18T04:35:30.173Z,1020.53
2018-02-18T04:35:56.270Z,1020.53
2018-02-18T04:36:22.364Z,1020.53
2018-02-18T04:36:48.465Z,1020.52
2018-02-18T04:37:14.562Z,1020.54
2018-02-18T04:37:40.668Z,1020.55
2018-02-18T04:38:06.793Z,1020.53
2018-02-18T04:38:32.888Z,1020.55
2018-02-18T04:38:58.996Z,1020.5
2018-02-18T04:39:25.094Z,1020.53
2018-02-18T04:39:51.191Z,1020.55
2018-02-18T04:40:17.295Z,1020.54
2018-02-18T04:40:43.413Z,1020.53
2018-02-18T04:41:09.513Z,1020.55
2018-02-18T04:41:35.617Z,1020.55
2018-02-18T04:42:01.712Z,1020.57
2018-02-18T04:42:27.809Z,1020.55
2018-02-18T04:42:53.910Z,1020.54
2018-02-18T04:43:20.018Z,1020.52
2018-02-18T04:43:46.117Z,1020.57
2018-02-18T04:44:12.214Z,1020.55
2018-02-18T04:44:38.321Z,1020.56
2018-02-18T04:45:04.415Z,1020.58
2018-02-18T04:45:30.515Z,1020.58
2018-02-18T04:45:56.608Z,1020.57
2018-02-18T04:46:22.713Z,1020.59
2018-02-18T04:46:48.810Z,1020.53
2018-02-18T04:47:14.916Z,1020.56
2018-02-18T04:47:41.017Z,1020.56
2018-02-18T04:48:07.111Z,1020.55
2018-02-18T04:48:33.214Z,1020.54
2018-02-18T04:48:59.333Z,1020.52
2018-02-18T04:49:25.448Z,1020.56
2018-02-18T04:49:51.547Z,1020.55
2018-02-18T04:50:17.651Z,1020.55
2018-02-18T04:50:43.749Z,1020.54
2018-02-18T04:51:09.841Z,1020.56
2018-02-18T04:51:35.959Z,1020.54
2018-02-18T04:52:02.054Z,1020.53
2018-02-18T04:52:28.157Z,1020.55
2018-02-18T04:52:54.255Z,1020.58
2018-02-18T04:53:20.357Z,1020.59
2018-02-18T04:53:46.460Z,1020.59
2018-02-18T04:54:12.560Z,1020.59
2018-02-18T04:54:38.651Z,1020.6
2018-02-18T04:55:04.755Z,1020.56
2018-02-18T04:55:30.846Z,1020.57
2018-02-18T04:55:56.949Z,1020.54
2018-02-18T04:56:23.055Z,1020.58
2018-02-18T04:56:49.148Z,1020.58
2018-02-18T04:57:15.255Z,1020.55
2018-02-18T04:57:41.347Z,1020.51
2018-02-18T04:58:07.445Z,1020.53
2018-02-18T04:58:33.547Z,1020.54
2018-02-18T04:58:59.643Z,1020.55
2018-02-18T04:59:25.747Z,1020.55
2018-02-18T04:59:51.852Z,1020.56
2018-02-18T05:00:17.953Z,1020.56
2018-02-18T05:00:44.045Z,1020.53
2018-02-18T05:01:10.147Z,1020.52
2018-02-18T05:01:36.245Z,1020.55
2018-02-18T05:02:02.348Z,1020.55
2018-02-18T05:02:28.450Z,1020.53
2018-02-18T05:02:54.550Z,1020.57
2018-02-18T05:03:20.646Z,1020.55
2018-02-18T05:03:46.748Z,1020.57
2018-02-18T05:04:12.849Z,1020.6
2018-02-18T05:04:38.943Z,1020.59
2018-02-18T05:05:05.046Z,1020.61
2018-02-18T05:05:31.140Z,1020.61
2018-02-18T05:05:57.254Z,1020.65
2018-02-18T05:06:23.354Z,1020.64
2018-02-18T05:06:49.458Z,1020.62
2018-02-18T05:07:15.553Z,1020.61
2018-02-18T05:07:41.657Z,1020.59
2018-02-18T05:08:07.769Z,1020.62
2018-02-18T05:08:33.869Z,1020.61
2018-02-18T05:08:59.969Z,1020.67
2018-02-18T05:09:26.078Z,1020.64
2018-02-18T05:09:52.176Z,1020.65
2018-02-18T05:10:18.270Z,1020.63
2018-02-18T05:10:44.372Z,1020.64
2018-02-18T05:11:10.471Z,1020.64
2018-02-18T05:11:36.568Z,1020.65
2018-02-18T05:12:02.676Z,1020.64
2018-02-18T05:12:28.773Z,1020.68
2018-02-18T05:12:54.889Z,1020.63
2018-02-18T05:13:21.003Z,1020.69
2018-02-18T05:13:47.104Z,1020.68
2018-02-18T05:14:13.216Z,1020.64
2018-02-18T05:14:39.352Z,1020.66
2018-02-18T05:15:05.460Z,1020.66
2018-02-18T05:15:31.555Z,1020.69
2018-02-18T05:15:57.658Z,1020.66
2018-02-18T05:16:23.762Z,1020.68
2018-02-18T05:16:49.863Z,1020.64